Terminal Aerodrome Forecast
Issued by NWS Melbourne, FL

Current Version | Previous Version | Text Only | Print | Product List | Glossary On
Versions: 1 2 3 4 5 6 7 8 9 10 11 12 13 14 15 16 17 18 19 20 21 22 23 24 25 26 27 28
379
FTUS42 KMLB 051132
TAFMLB
TAF
KMLB 051132Z 0512/0612 29007KT P6SM SKC
     FM051400 29015KT P6SM FEW060
     FM051500 30015G22KT P6SM FEW035
     FM060000 29010KT P6SM SKC=

USA.gov is the U.S. government's official web portal to all federal, state and local government web resources and services.